createdAt,value
2023-01-28T00:00:03.458Z,25.92
2023-01-28T00:03:05.686Z,27.58
2023-01-28T00:06:11.687Z,26.90
2023-01-28T00:09:14.355Z,25.00
2023-01-28T00:12:17.745Z,25.63
2023-01-28T00:15:20.069Z,26.17
2023-01-28T00:18:21.968Z,26.40
2023-01-28T00:21:24.187Z,29.25
2023-01-28T00:24:26.163Z,28.95
2023-01-28T00:27:29.510Z,25.55
2023-01-28T00:30:31.381Z,24.55
2023-01-28T00:33:33.634Z,25.02
2023-01-28T00:36:35.545Z,24.88
2023-01-28T00:39:37.467Z,25.05
2023-01-28T00:42:41.378Z,26.98
2023-01-28T00:45:43.646Z,26.52
2023-01-28T00:48:46.377Z,26.10
2023-01-28T00:51:48.588Z,24.67
2023-01-28T00:54:50.458Z,27.08
2023-01-28T00:57:54.266Z,25.45
2023-01-28T01:00:56.781Z,29.50
2023-01-28T01:03:58.823Z,25.42
2023-01-28T01:07:00.807Z,25.58
2023-01-28T01:10:02.796Z,25.52
2023-01-28T01:13:07.452Z,25.98
2023-01-28T01:16:11.672Z,25.33
2023-01-28T01:19:13.697Z,23.70
2023-01-28T01:22:16.233Z,23.92
2023-01-28T01:25:19.082Z,21.58
2023-01-28T01:28:22.962Z,19.75
2023-01-28T01:31:24.876Z,22.40
2023-01-28T01:34:27.814Z,22.00
2023-01-28T01:37:30.039Z,23.80
2023-01-28T01:40:33.035Z,19.40
2023-01-28T01:43:51.519Z,16.88
2023-01-28T01:46:54.194Z,19.77
2023-01-28T01:49:57.301Z,23.30
2023-01-28T01:53:05.210Z,25.27
2023-01-28T01:56:10.684Z,24.77
2023-01-28T01:59:18.124Z,25.80
2023-01-28T02:02:24.328Z,27.08
2023-01-28T02:05:26.511Z,26.25
2023-01-28T02:08:28.509Z,31.13
2023-01-28T02:11:33.891Z,27.70
2023-01-28T02:14:41.476Z,31.55
2023-01-28T02:17:45.516Z,29.02
2023-01-28T02:21:10.543Z,32.35
2023-01-28T02:24:37.405Z,31.15
2023-01-28T02:27:58.094Z,31.00
2023-01-28T02:31:11.136Z,32.90
2023-01-28T02:34:18.828Z,29.95
2023-01-28T02:37:25.586Z,29.83
2023-01-28T02:40:31.505Z,30.65
2023-01-28T02:43:36.926Z,28.73
2023-01-28T02:46:38.722Z,31.67
2023-01-28T02:49:44.455Z,27.88
2023-01-28T02:52:56.521Z,24.23
2023-01-28T02:56:13.327Z,26.55
2023-01-28T02:59:23.545Z,28.00
2023-01-28T03:02:33.323Z,24.48
2023-01-28T03:05:38.998Z,22.35
2023-01-28T03:08:45.851Z,25.50
2023-01-28T03:11:51.440Z,22.58
2023-01-28T03:14:58.246Z,22.48
2023-01-28T03:18:06.256Z,27.38
2023-01-28T03:21:11.196Z,30.33
2023-01-28T03:24:17.712Z,26.90
2023-01-28T03:27:26.816Z,27.35
2023-01-28T03:30:38.297Z,30.42
2023-01-28T03:33:42.432Z,27.52
2023-01-28T03:36:46.518Z,31.15
2023-01-28T03:39:48.923Z,27.38
2023-01-28T03:42:50.960Z,28.80
2023-01-28T03:45:54.291Z,30.88
2023-01-28T03:48:57.091Z,29.00
2023-01-28T03:51:59.386Z,29.38
2023-01-28T03:55:01.726Z,26.40
2023-01-28T03:58:04.049Z,28.27
2023-01-28T04:01:08.548Z,26.50
2023-01-28T04:04:10.335Z,27.42
2023-01-28T04:07:13.947Z,25.55
2023-01-28T04:10:16.795Z,28.52
2023-01-28T04:13:19.041Z,29.63
2023-01-28T04:16:22.921Z,29.05
2023-01-28T04:19:25.624Z,29.58
2023-01-28T04:22:27.391Z,28.02
2023-01-28T04:25:30.461Z,25.13
2023-01-28T04:28:32.695Z,26.73
2023-01-28T04:31:36.969Z,24.45
2023-01-28T04:34:38.856Z,28.38
2023-01-28T04:37:41.722Z,29.13
2023-01-28T04:40:44.330Z,26.63
2023-01-28T04:43:46.832Z,30.65
2023-01-28T04:46:50.688Z,31.83
2023-01-28T04:49:52.522Z,34.15
2023-01-28T04:52:54.812Z,35.20
2023-01-28T04:55:58.490Z,33.70
2023-01-28T04:59:00.478Z,32.08
2023-01-28T05:02:04.395Z,34.78
2023-01-28T05:05:07.365Z,31.92
2023-01-28T05:08:09.390Z,31.25
2023-01-28T05:11:11.686Z,35.15
2023-01-28T05:14:14.204Z,31.10
2023-01-28T05:17:17.683Z,31.83
2023-01-28T05:20:19.898Z,30.30
2023-01-28T05:23:22.665Z,29.77
2023-01-28T05:26:24.780Z,31.23
2023-01-28T05:29:27.020Z,31.55
2023-01-28T05:32:30.470Z,28.23
2023-01-28T05:35:32.465Z,31.17
2023-01-28T05:38:34.496Z,32.30
2023-01-28T05:41:36.591Z,29.05
2023-01-28T05:44:40.992Z,29.92
2023-01-28T05:47:45.807Z,31.25
2023-01-28T05:50:48.075Z,30.05
2023-01-28T05:53:50.368Z,32.97
2023-01-28T05:56:52.876Z,27.63
2023-01-28T05:59:55.112Z,30.05
2023-01-28T06:02:58.727Z,32.70
2023-01-28T06:06:01.024Z,31.13
2023-01-28T06:09:03.347Z,32.72
2023-01-28T06:12:06.614Z,40.10
2023-01-28T06:15:10.071Z,31.30
2023-01-28T06:18:13.231Z,33.72
2023-01-28T06:21:15.239Z,29.98
2023-01-28T06:24:17.695Z,31.88
2023-01-28T06:27:20.027Z,32.47
2023-01-28T06:30:21.802Z,32.17
2023-01-28T06:33:25.115Z,30.65
2023-01-28T06:36:27.135Z,33.60
2023-01-28T06:39:29.568Z,31.88
2023-01-28T06:42:31.474Z,30.25
2023-01-28T06:45:34.342Z,29.00
2023-01-28T06:48:37.658Z,29.48
2023-01-28T06:51:39.660Z,29.30
2023-01-28T06:54:41.847Z,30.75
2023-01-28T06:57:43.933Z,30.15
2023-01-28T07:00:45.912Z,35.33
2023-01-28T07:03:49.439Z,27.77
2023-01-28T07:06:51.197Z,28.98
2023-01-28T07:09:53.087Z,30.98
2023-01-28T07:12:54.939Z,29.63
2023-01-28T07:15:56.807Z,30.25
2023-01-28T07:19:00.570Z,32.17
2023-01-28T07:22:02.416Z,30.10
2023-01-28T07:25:05.872Z,28.88
2023-01-28T07:28:07.980Z,33.40
2023-01-28T07:31:10.348Z,30.05
2023-01-28T07:34:14.537Z,32.15
2023-01-28T07:37:16.457Z,32.42
2023-01-28T07:40:18.757Z,35.22
2023-01-28T07:43:21.059Z,31.98
2023-01-28T07:46:22.840Z,29.00
2023-01-28T07:49:26.531Z,34.10
2023-01-28T07:52:28.412Z,36.40
2023-01-28T07:55:31.515Z,34.97
2023-01-28T07:58:33.849Z,38.75
2023-01-28T08:01:35.745Z,39.88
2023-01-28T08:04:39.224Z,38.33
2023-01-28T08:07:41.229Z,38.45
2023-01-28T08:10:43.317Z,35.92
2023-01-28T08:13:45.269Z,34.25
2023-01-28T08:16:47.406Z,38.95
2023-01-28T08:19:50.759Z,36.10
2023-01-28T08:22:53.069Z,38.35
2023-01-28T08:25:57.863Z,35.97
2023-01-28T08:28:59.696Z,35.25
2023-01-28T08:32:01.585Z,38.15
2023-01-28T08:35:06.130Z,32.67
2023-01-28T08:38:09.067Z,39.35
2023-01-28T08:41:11.865Z,37.25
2023-01-28T08:44:13.680Z,39.83
2023-01-28T08:47:15.713Z,33.22
2023-01-28T08:50:19.791Z,39.60
2023-01-28T08:53:21.694Z,35.88
2023-01-28T08:56:23.746Z,35.50
2023-01-28T08:59:25.657Z,33.55
2023-01-28T09:02:31.932Z,36.53
2023-01-28T09:05:36.583Z,36.25
2023-01-28T09:08:38.571Z,36.05
2023-01-28T09:11:40.436Z,39.53
2023-01-28T09:14:42.508Z,37.17
2023-01-28T09:17:44.316Z,38.15
2023-01-28T09:20:48.626Z,38.90
2023-01-28T09:23:50.775Z,34.80
2023-01-28T09:26:52.840Z,34.28
2023-01-28T09:29:54.750Z,39.13
2023-01-28T09:32:57.754Z,37.10
2023-01-28T09:36:02.270Z,32.80
2023-01-28T09:39:04.393Z,27.08
2023-01-28T09:42:28.128Z,33.03
2023-01-28T09:45:37.464Z,31.55
2023-01-28T09:48:44.747Z,33.67
2023-01-28T09:51:52.154Z,35.22
2023-01-28T09:54:59.956Z,36.75
2023-01-28T09:58:02.140Z,34.40
2023-01-28T10:01:23.139Z,29.77
2023-01-28T10:04:44.469Z,34.55
2023-01-28T10:07:57.676Z,29.25
2023-01-28T10:11:07.599Z,30.85
2023-01-28T10:14:17.329Z,31.92
2023-01-28T10:17:29.278Z,32.40
2023-01-28T10:20:36.437Z,32.53
2023-01-28T10:23:49.427Z,24.55
2023-01-28T10:26:52.693Z,24.35
2023-01-28T10:29:54.781Z,31.10
2023-01-28T10:33:01.901Z,31.27
2023-01-28T10:36:05.020Z,30.73
2023-01-28T10:39:10.785Z,33.08
2023-01-28T10:42:27.508Z,34.00
2023-01-28T10:45:34.649Z,34.92
2023-01-28T10:48:42.968Z,35.30
2023-01-28T10:51:44.881Z,35.23
2023-01-28T10:54:58.920Z,33.58
2023-01-28T10:58:03.999Z,35.97
2023-01-28T11:01:07.607Z,31.30
2023-01-28T11:04:22.430Z,30.50
2023-01-28T11:07:24.454Z,37.15
2023-01-28T11:10:30.840Z,34.05
2023-01-28T11:13:32.604Z,35.47
2023-01-28T11:16:34.573Z,38.67
2023-01-28T11:19:39.079Z,37.85
2023-01-28T11:22:43.491Z,31.55
2023-01-28T11:25:46.974Z,36.28
2023-01-28T11:28:50.409Z,35.22
2023-01-28T11:31:54.273Z,35.63
2023-01-28T11:34:57.048Z,37.15
2023-01-28T11:37:59.741Z,39.33
2023-01-28T11:41:03.127Z,39.05
2023-01-28T11:44:16.529Z,36.97
2023-01-28T11:47:38.994Z,30.83
2023-01-28T11:50:51.697Z,32.50
2023-01-28T11:54:07.147Z,38.30
2023-01-28T11:57:22.242Z,33.40
2023-01-28T12:00:38.657Z,34.65
2023-01-28T12:03:51.631Z,32.63
2023-01-28T12:07:18.316Z,36.30
2023-01-28T12:10:31.874Z,32.60
2023-01-28T12:13:55.646Z,33.38
2023-01-28T12:17:12.968Z,31.38
2023-01-28T12:20:24.556Z,34.00
2023-01-28T12:23:48.255Z,29.45
2023-01-28T12:27:01.892Z,27.27
2023-01-28T12:30:19.153Z,25.63
2023-01-28T12:33:41.575Z,27.90
2023-01-28T12:36:56.052Z,26.45
2023-01-28T12:40:14.750Z,27.60
2023-01-28T12:43:22.775Z,25.70
2023-01-28T12:46:38.714Z,27.02
2023-01-28T12:49:46.649Z,25.20
2023-01-28T12:52:53.780Z,26.10
2023-01-28T12:56:00.819Z,25.70
2023-01-28T12:59:10.640Z,26.63
2023-01-28T13:02:24.513Z,23.83
2023-01-28T13:05:33.315Z,25.02
2023-01-28T13:08:35.385Z,21.80
2023-01-28T13:11:38.066Z,21.13
2023-01-28T13:14:41.363Z,20.05
2023-01-28T13:17:56.080Z,16.50
2023-01-28T13:20:58.593Z,19.60
2023-01-28T13:24:07.027Z,21.70
2023-01-28T13:27:21.350Z,21.17
2023-01-28T13:30:26.237Z,18.27
2023-01-28T13:33:32.906Z,20.63
2023-01-28T13:36:39.843Z,20.35
2023-01-28T13:39:49.812Z,20.05
2023-01-28T13:43:03.291Z,19.85
2023-01-28T13:46:07.449Z,19.63
2023-01-28T13:49:18.691Z,19.90
2023-01-28T13:52:26.656Z,23.95
2023-01-28T13:55:43.996Z,21.58
2023-01-28T13:59:15.909Z,22.38
2023-01-28T14:02:42.605Z,21.50
2023-01-28T14:06:11.711Z,19.73
2023-01-28T14:09:42.977Z,25.73
2023-01-28T14:13:29.099Z,20.00
2023-01-28T14:16:41.107Z,19.85
2023-01-28T14:19:45.166Z,23.50
2023-01-28T14:22:49.204Z,29.77
2023-01-28T14:26:03.212Z,21.08
2023-01-28T14:29:31.740Z,20.13
2023-01-28T14:32:35.315Z,20.02
2023-01-28T14:35:44.077Z,26.73
2023-01-28T14:38:48.276Z,21.00
2023-01-28T14:41:53.426Z,23.45
2023-01-28T14:45:09.979Z,22.00
2023-01-28T14:48:23.635Z,38.28
2023-01-28T14:51:42.679Z,26.45
2023-01-28T14:54:56.676Z,23.45
2023-01-28T14:58:02.923Z,23.50
2023-01-28T15:01:05.036Z,23.45
2023-01-28T15:04:23.340Z,21.88
2023-01-28T15:07:27.595Z,24.52
2023-01-28T15:10:35.601Z,29.67
2023-01-28T15:13:40.828Z,28.10
2023-01-28T15:16:48.295Z,37.10
2023-01-28T15:19:50.954Z,29.63
2023-01-28T15:22:53.565Z,29.92
2023-01-28T15:25:57.335Z,30.58
2023-01-28T15:28:59.885Z,26.60
2023-01-28T15:32:03.075Z,34.35
2023-01-28T15:35:11.604Z,27.08
2023-01-28T15:38:14.127Z,35.47
2023-01-28T15:41:20.059Z,33.42
2023-01-28T15:44:29.162Z,29.95
2023-01-28T15:50:34.208Z,27.45
2023-01-28T15:53:42.373Z,24.13
2023-01-28T15:56:47.013Z,30.67
2023-01-28T15:59:49.453Z,26.50
2023-01-28T16:02:53.233Z,22.95
2023-01-28T16:06:02.604Z,20.20
2023-01-28T16:09:08.140Z,25.95
2023-01-28T16:12:14.641Z,22.33
2023-01-28T16:15:19.933Z,21.05
2023-01-28T16:18:29.644Z,22.05
2023-01-28T16:21:34.720Z,23.95
2023-01-28T16:24:37.000Z,23.90
2023-01-28T16:27:40.830Z,24.67
2023-01-28T16:30:43.114Z,29.23
2023-01-28T16:33:45.159Z,28.35
2023-01-28T16:36:47.302Z,29.00
2023-01-28T16:39:50.193Z,30.92
2023-01-28T16:42:55.514Z,28.67
2023-01-28T16:45:57.553Z,28.88
2023-01-28T16:49:00.489Z,26.42
2023-01-28T16:52:03.719Z,25.60
2023-01-28T16:55:06.291Z,28.00
2023-01-28T16:58:10.843Z,29.23
2023-01-28T17:01:13.242Z,24.10
2023-01-28T17:04:15.744Z,24.20
2023-01-28T17:07:18.041Z,29.52
2023-01-28T17:10:20.067Z,30.23
2023-01-28T17:13:23.963Z,26.35
2023-01-28T17:16:28.911Z,30.60
2023-01-28T17:19:31.218Z,26.02
2023-01-28T17:22:33.084Z,29.52
2023-01-28T17:25:37.797Z,32.03
2023-01-28T17:28:41.794Z,30.60
2023-01-28T17:31:44.528Z,27.40
2023-01-28T17:34:48.302Z,34.95
2023-01-28T17:37:54.456Z,27.85
2023-01-28T17:41:01.772Z,35.70
2023-01-28T17:44:06.143Z,48.38
2023-01-28T17:47:08.285Z,37.83
2023-01-28T17:50:11.657Z,33.88
2023-01-28T17:53:14.006Z,49.80
2023-01-28T17:56:17.737Z,37.72
2023-01-28T17:59:22.634Z,33.30
2023-01-28T18:02:26.421Z,32.05
2023-01-28T18:05:28.758Z,35.95
2023-01-28T18:08:30.796Z,27.35
2023-01-28T18:11:32.907Z,27.65
2023-01-28T18:14:39.099Z,31.08
2023-01-28T18:17:42.243Z,34.63
2023-01-28T18:20:44.601Z,31.45
2023-01-28T18:23:46.830Z,34.83
2023-01-28T18:26:50.676Z,29.83
2023-01-28T18:29:54.389Z,30.77
2023-01-28T18:32:56.980Z,32.60
2023-01-28T18:36:00.141Z,28.45
2023-01-28T18:39:03.651Z,32.33
2023-01-28T18:42:06.833Z,34.58
2023-01-28T18:45:12.131Z,30.75
2023-01-28T18:48:14.503Z,29.40
2023-01-28T18:51:29.466Z,29.60
2023-01-28T18:54:33.567Z,30.08
2023-01-28T18:57:36.391Z,27.65
2023-01-28T19:00:39.927Z,28.80
2023-01-28T19:03:42.313Z,38.50
2023-01-28T19:06:46.739Z,28.17
2023-01-28T19:09:48.838Z,28.33
2023-01-28T19:12:51.367Z,28.15
2023-01-28T19:15:55.630Z,27.70
2023-01-28T19:18:59.810Z,27.63
2023-01-28T19:22:02.716Z,27.45
2023-01-28T19:25:09.460Z,26.40
2023-01-28T19:28:11.816Z,27.88
2023-01-28T19:31:15.923Z,29.02
2023-01-28T19:34:18.166Z,28.85
2023-01-28T19:37:21.451Z,29.52
2023-01-28T19:40:25.344Z,29.13
2023-01-28T19:43:28.224Z,27.02
2023-01-28T19:46:33.102Z,29.52
2023-01-28T19:49:35.568Z,29.67
2023-01-28T19:52:38.177Z,30.02
2023-01-28T19:55:40.954Z,33.78
2023-01-28T19:58:49.559Z,29.95
2023-01-28T20:01:53.393Z,36.00
2023-01-28T20:05:00.968Z,30.58
2023-01-28T20:08:03.778Z,34.90
2023-01-28T20:11:07.602Z,30.77
2023-01-28T20:14:12.205Z,32.58
2023-01-28T20:17:16.074Z,29.88
2023-01-28T20:20:18.913Z,29.88
2023-01-28T20:23:23.510Z,31.52
2023-01-28T20:26:28.539Z,31.35
2023-01-28T20:29:31.327Z,28.15
2023-01-28T20:32:35.084Z,33.38
2023-01-28T20:35:38.518Z,28.55
2023-01-28T20:38:44.104Z,28.92
2023-01-28T20:41:46.848Z,24.35
2023-01-28T20:44:49.334Z,30.08
2023-01-28T20:47:53.980Z,29.55
2023-01-28T20:50:57.064Z,23.80
2023-01-28T20:54:01.327Z,26.05
2023-01-28T20:57:04.352Z,25.05
2023-01-28T21:00:08.871Z,30.02
2023-01-28T21:03:12.501Z,24.30
2023-01-28T21:06:15.801Z,26.67
2023-01-28T21:09:19.552Z,28.05
2023-01-28T21:12:21.581Z,26.02
2023-01-28T21:15:24.573Z,31.90
2023-01-28T21:18:30.590Z,28.55
2023-01-28T21:21:32.847Z,30.45
2023-01-28T21:24:35.631Z,27.10
2023-01-28T21:27:38.721Z,28.17
2023-01-28T21:30:42.264Z,27.60
2023-01-28T21:33:48.957Z,34.00
2023-01-28T21:36:51.294Z,29.75
2023-01-28T21:39:53.834Z,32.40
2023-01-28T21:42:56.686Z,31.25
2023-01-28T21:45:59.975Z,31.20
2023-01-28T21:49:06.009Z,31.52
2023-01-28T21:52:08.280Z,32.80
2023-01-28T21:55:10.550Z,31.55
2023-01-28T21:58:13.191Z,33.05
2023-01-28T22:01:15.305Z,35.13
2023-01-28T22:04:19.419Z,31.30
2023-01-28T22:07:21.512Z,33.83
2023-01-28T22:10:23.688Z,35.45
2023-01-28T22:13:25.883Z,30.58
2023-01-28T22:16:27.841Z,30.30
2023-01-28T22:19:31.233Z,33.05
2023-01-28T22:22:33.173Z,31.92
2023-01-28T22:25:35.660Z,34.05
2023-01-28T22:28:37.982Z,34.50
2023-01-28T22:31:41.141Z,31.90
2023-01-28T22:34:46.674Z,30.88
2023-01-28T22:37:48.875Z,31.25
2023-01-28T22:40:50.683Z,35.78
2023-01-28T22:43:53.143Z,35.78
2023-01-28T22:46:55.219Z,32.42
2023-01-28T22:49:58.638Z,32.05
2023-01-28T22:53:00.603Z,28.17
2023-01-28T22:56:02.692Z,30.85
2023-01-28T22:59:04.970Z,32.78
2023-01-28T23:02:07.162Z,33.80
2023-01-28T23:05:10.582Z,31.60
2023-01-28T23:08:13.320Z,31.92
2023-01-28T23:11:16.155Z,31.48
2023-01-28T23:14:18.418Z,32.42
2023-01-28T23:17:20.326Z,34.97
2023-01-28T23:20:23.613Z,32.08
2023-01-28T23:23:26.022Z,33.85
2023-01-28T23:26:28.891Z,35.28
2023-01-28T23:29:31.708Z,35.00
2023-01-28T23:32:33.650Z,34.63
2023-01-28T23:35:37.897Z,33.17
2023-01-28T23:38:40.424Z,33.70
2023-01-28T23:41:44.648Z,36.03
2023-01-28T23:44:47.416Z,35.10
2023-01-28T23:47:49.265Z,38.20
2023-01-28T23:50:55.922Z,32.70
2023-01-28T23:53:58.129Z,36.35
2023-01-28T23:57:00.659Z,39.45
